sensor_id;sensor_type;location;lat;lon;timestamp;P1;durP1;ratioP1;P2;durP2;ratioP2
13415;SDS011;6779;50.150;8.680;2023-02-28T00:02:24;5.97;;;4.67;;
13415;SDS011;6779;50.150;8.680;2023-02-28T00:04:50;6.57;;;4.87;;
13415;SDS011;6779;50.150;8.680;2023-02-28T00:07:18;6.40;;;4.77;;
13415;SDS011;6779;50.150;8.680;2023-02-28T00:09:43;5.50;;;4.60;;
13415;SDS011;6779;50.150;8.680;2023-02-28T00:12:08;5.47;;;4.97;;
13415;SDS011;6779;50.150;8.680;2023-02-28T00:14:35;6.27;;;4.40;;
13415;SDS011;6779;50.150;8.680;2023-02-28T00:17:01;5.60;;;4.80;;
13415;SDS011;6779;50.150;8.680;2023-02-28T00:19:26;7.00;;;4.80;;
13415;SDS011;6779;50.150;8.680;2023-02-28T00:21:51;5.23;;;4.73;;
13415;SDS011;6779;50.150;8.680;2023-02-28T00:24:17;5.37;;;4.83;;
13415;SDS011;6779;50.150;8.680;2023-02-28T00:26:42;7.93;;;4.60;;
13415;SDS011;6779;50.150;8.680;2023-02-28T00:29:07;5.67;;;4.60;;
13415;SDS011;6779;50.150;8.680;2023-02-28T00:31:33;5.87;;;4.83;;
13415;SDS011;6779;50.150;8.680;2023-02-28T00:33:58;6.20;;;4.70;;
13415;SDS011;6779;50.150;8.680;2023-02-28T00:36:23;6.67;;;4.90;;
13415;SDS011;6779;50.150;8.680;2023-02-28T00:38:48;5.23;;;4.77;;
13415;SDS011;6779;50.150;8.680;2023-02-28T00:41:14;5.73;;;5.10;;
13415;SDS011;6779;50.150;8.680;2023-02-28T00:43:39;5.27;;;4.77;;
13415;SDS011;6779;50.150;8.680;2023-02-28T00:46:05;6.40;;;4.93;;
13415;SDS011;6779;50.150;8.680;2023-02-28T00:48:31;6.10;;;4.73;;
13415;SDS011;6779;50.150;8.680;2023-02-28T00:50:56;8.37;;;4.87;;
13415;SDS011;6779;50.150;8.680;2023-02-28T00:53:21;5.13;;;4.63;;
13415;SDS011;6779;50.150;8.680;2023-02-28T00:55:47;6.20;;;5.60;;
13415;SDS011;6779;50.150;8.680;2023-02-28T00:58:13;5.67;;;4.50;;
13415;SDS011;6779;50.150;8.680;2023-02-28T01:00:39;5.80;;;4.70;;
13415;SDS011;6779;50.150;8.680;2023-02-28T01:03:04;6.17;;;5.10;;
13415;SDS011;6779;50.150;8.680;2023-02-28T01:05:29;5.40;;;4.90;;
13415;SDS011;6779;50.150;8.680;2023-02-28T01:07:54;5.50;;;5.00;;
13415;SDS011;6779;50.150;8.680;2023-02-28T01:10:20;11.40;;;4.87;;
13415;SDS011;6779;50.150;8.680;2023-02-28T01:12:45;5.80;;;5.20;;
13415;SDS011;6779;50.150;8.680;2023-02-28T01:15:11;5.37;;;4.77;;
13415;SDS011;6779;50.150;8.680;2023-02-28T01:17:36;5.90;;;5.27;;
13415;SDS011;6779;50.150;8.680;2023-02-28T01:20:02;6.77;;;5.23;;
13415;SDS011;6779;50.150;8.680;2023-02-28T01:22:27;8.23;;;5.17;;
13415;SDS011;6779;50.150;8.680;2023-02-28T01:24:53;8.10;;;5.77;;
13415;SDS011;6779;50.150;8.680;2023-02-28T01:27:18;7.90;;;5.50;;
13415;SDS011;6779;50.150;8.680;2023-02-28T01:29:44;8.17;;;5.77;;
13415;SDS011;6779;50.150;8.680;2023-02-28T01:32:09;5.40;;;4.87;;
13415;SDS011;6779;50.150;8.680;2023-02-28T01:34:34;6.17;;;5.10;;
13415;SDS011;6779;50.150;8.680;2023-02-28T01:37:00;6.00;;;5.40;;
13415;SDS011;6779;50.150;8.680;2023-02-28T01:39:26;6.57;;;5.80;;
13415;SDS011;6779;50.150;8.680;2023-02-28T01:41:51;6.70;;;5.40;;
13415;SDS011;6779;50.150;8.680;2023-02-28T01:47:20;6.43;;;5.40;;
13415;SDS011;6779;50.150;8.680;2023-02-28T01:49:45;7.37;;;5.63;;
13415;SDS011;6779;50.150;8.680;2023-02-28T01:52:11;7.93;;;5.77;;
13415;SDS011;6779;50.150;8.680;2023-02-28T01:54:42;6.73;;;6.07;;
13415;SDS011;6779;50.150;8.680;2023-02-28T01:57:09;6.73;;;5.70;;
13415;SDS011;6779;50.150;8.680;2023-02-28T01:59:39;6.60;;;5.90;;
13415;SDS011;6779;50.150;8.680;2023-02-28T02:02:13;8.87;;;5.50;;
13415;SDS011;6779;50.150;8.680;2023-02-28T02:04:41;7.23;;;5.73;;
13415;SDS011;6779;50.150;8.680;2023-02-28T02:07:11;8.67;;;6.30;;
13415;SDS011;6779;50.150;8.680;2023-02-28T02:09:37;6.97;;;5.53;;
13415;SDS011;6779;50.150;8.680;2023-02-28T02:12:19;5.90;;;5.30;;
13415;SDS011;6779;50.150;8.680;2023-02-28T02:15:12;7.03;;;5.90;;
13415;SDS011;6779;50.150;8.680;2023-02-28T02:17:42;6.57;;;5.97;;
13415;SDS011;6779;50.150;8.680;2023-02-28T02:25:42;9.17;;;5.53;;
13415;SDS011;6779;50.150;8.680;2023-02-28T02:28:21;7.57;;;6.00;;
13415;SDS011;6779;50.150;8.680;2023-02-28T02:30:59;6.43;;;5.27;;
13415;SDS011;6779;50.150;8.680;2023-02-28T02:37:09;6.20;;;5.60;;
13415;SDS011;6779;50.150;8.680;2023-02-28T02:39:59;5.97;;;5.40;;
13415;SDS011;6779;50.150;8.680;2023-02-28T02:42:34;5.60;;;5.13;;
13415;SDS011;6779;50.150;8.680;2023-02-28T02:45:06;6.13;;;5.53;;
13415;SDS011;6779;50.150;8.680;2023-02-28T02:47:39;5.73;;;5.03;;
13415;SDS011;6779;50.150;8.680;2023-02-28T02:50:07;6.30;;;5.70;;
13415;SDS011;6779;50.150;8.680;2023-02-28T02:52:37;5.87;;;5.17;;
13415;SDS011;6779;50.150;8.680;2023-02-28T02:55:04;8.20;;;5.83;;
13415;SDS011;6779;50.150;8.680;2023-02-28T02:57:51;8.03;;;5.57;;
13415;SDS011;6779;50.150;8.680;2023-02-28T03:00:21;6.87;;;6.17;;
13415;SDS011;6779;50.150;8.680;2023-02-28T03:02:50;6.67;;;5.57;;
13415;SDS011;6779;50.150;8.680;2023-02-28T03:05:19;6.43;;;5.40;;
13415;SDS011;6779;50.150;8.680;2023-02-28T03:07:46;6.80;;;5.03;;
13415;SDS011;6779;50.150;8.680;2023-02-28T03:10:31;7.87;;;5.63;;
13415;SDS011;6779;50.150;8.680;2023-02-28T03:24:11;9.40;;;5.47;;
13415;SDS011;6779;50.150;8.680;2023-02-28T03:26:43;7.87;;;6.20;;
13415;SDS011;6779;50.150;8.680;2023-02-28T03:31:52;6.37;;;5.77;;
13415;SDS011;6779;50.150;8.680;2023-02-28T03:35:11;7.57;;;5.73;;
13415;SDS011;6779;50.150;8.680;2023-02-28T03:37:36;6.37;;;5.77;;
13415;SDS011;6779;50.150;8.680;2023-02-28T03:40:08;5.33;;;4.83;;
13415;SDS011;6779;50.150;8.680;2023-02-28T03:42:39;6.53;;;5.73;;
13415;SDS011;6779;50.150;8.680;2023-02-28T03:45:16;6.40;;;5.20;;
13415;SDS011;6779;50.150;8.680;2023-02-28T03:50:20;8.43;;;5.70;;
13415;SDS011;6779;50.150;8.680;2023-02-28T03:52:53;7.77;;;5.87;;
13415;SDS011;6779;50.150;8.680;2023-02-28T03:55:26;5.60;;;5.10;;
13415;SDS011;6779;50.150;8.680;2023-02-28T04:00:43;5.80;;;5.20;;
13415;SDS011;6779;50.150;8.680;2023-02-28T04:03:11;7.20;;;5.37;;
13415;SDS011;6779;50.150;8.680;2023-02-28T04:05:47;9.47;;;5.87;;
13415;SDS011;6779;50.150;8.680;2023-02-28T04:08:15;6.40;;;5.80;;
13415;SDS011;6779;50.150;8.680;2023-02-28T04:10:40;6.53;;;5.83;;
13415;SDS011;6779;50.150;8.680;2023-02-28T04:13:08;6.37;;;5.50;;
13415;SDS011;6779;50.150;8.680;2023-02-28T04:15:33;6.90;;;5.93;;
13415;SDS011;6779;50.150;8.680;2023-02-28T04:17:58;6.37;;;5.63;;
13415;SDS011;6779;50.150;8.680;2023-02-28T04:20:24;7.63;;;6.33;;
13415;SDS011;6779;50.150;8.680;2023-02-28T04:22:49;6.87;;;6.17;;
13415;SDS011;6779;50.150;8.680;2023-02-28T04:25:14;7.97;;;6.03;;
13415;SDS011;6779;50.150;8.680;2023-02-28T04:27:40;9.30;;;6.60;;
13415;SDS011;6779;50.150;8.680;2023-02-28T04:30:05;7.07;;;5.70;;
13415;SDS011;6779;50.150;8.680;2023-02-28T04:32:31;7.30;;;6.03;;
13415;SDS011;6779;50.150;8.680;2023-02-28T04:34:56;7.10;;;6.40;;
13415;SDS011;6779;50.150;8.680;2023-02-28T04:37:22;8.50;;;7.00;;
13415;SDS011;6779;50.150;8.680;2023-02-28T04:39:52;7.57;;;6.47;;
13415;SDS011;6779;50.150;8.680;2023-02-28T04:42:18;7.10;;;6.40;;
13415;SDS011;6779;50.150;8.680;2023-02-28T04:44:43;7.93;;;6.37;;
13415;SDS011;6779;50.150;8.680;2023-02-28T04:47:08;7.33;;;6.27;;
13415;SDS011;6779;50.150;8.680;2023-02-28T04:49:33;7.53;;;6.30;;
13415;SDS011;6779;50.150;8.680;2023-02-28T04:51:59;7.93;;;6.03;;
13415;SDS011;6779;50.150;8.680;2023-02-28T04:54:24;7.13;;;6.10;;
13415;SDS011;6779;50.150;8.680;2023-02-28T04:56:49;8.63;;;6.37;;
13415;SDS011;6779;50.150;8.680;2023-02-28T04:59:15;7.63;;;6.17;;
13415;SDS011;6779;50.150;8.680;2023-02-28T05:01:40;7.03;;;6.33;;
13415;SDS011;6779;50.150;8.680;2023-02-28T05:04:05;7.07;;;6.43;;
13415;SDS011;6779;50.150;8.680;2023-02-28T05:06:33;8.07;;;6.63;;
13415;SDS011;6779;50.150;8.680;2023-02-28T05:08:58;8.70;;;6.20;;
13415;SDS011;6779;50.150;8.680;2023-02-28T05:11:28;6.47;;;5.50;;
13415;SDS011;6779;50.150;8.680;2023-02-28T05:13:59;7.70;;;5.93;;
13415;SDS011;6779;50.150;8.680;2023-02-28T05:16:24;6.43;;;5.53;;
13415;SDS011;6779;50.150;8.680;2023-02-28T05:18:50;9.60;;;6.07;;
13415;SDS011;6779;50.150;8.680;2023-02-28T05:21:22;7.67;;;6.20;;
13415;SDS011;6779;50.150;8.680;2023-02-28T05:23:51;6.90;;;5.90;;
13415;SDS011;6779;50.150;8.680;2023-02-28T05:26:17;6.87;;;6.03;;
13415;SDS011;6779;50.150;8.680;2023-02-28T05:28:42;7.57;;;6.03;;
13415;SDS011;6779;50.150;8.680;2023-02-28T05:31:10;7.63;;;5.50;;
13415;SDS011;6779;50.150;8.680;2023-02-28T05:33:35;8.47;;;5.93;;
13415;SDS011;6779;50.150;8.680;2023-02-28T05:36:01;7.93;;;5.80;;
13415;SDS011;6779;50.150;8.680;2023-02-28T05:38:26;7.30;;;5.80;;
13415;SDS011;6779;50.150;8.680;2023-02-28T05:40:51;6.07;;;5.43;;
13415;SDS011;6779;50.150;8.680;2023-02-28T05:43:18;7.63;;;5.47;;
13415;SDS011;6779;50.150;8.680;2023-02-28T05:45:43;9.20;;;5.90;;
13415;SDS011;6779;50.150;8.680;2023-02-28T05:48:08;7.70;;;5.67;;
13415;SDS011;6779;50.150;8.680;2023-02-28T05:50:34;6.47;;;5.57;;
13415;SDS011;6779;50.150;8.680;2023-02-28T05:52:59;6.33;;;5.60;;
13415;SDS011;6779;50.150;8.680;2023-02-28T05:55:24;8.97;;;5.57;;
13415;SDS011;6779;50.150;8.680;2023-02-28T05:57:50;6.23;;;5.37;;
13415;SDS011;6779;50.150;8.680;2023-02-28T06:00:15;6.13;;;5.50;;
13415;SDS011;6779;50.150;8.680;2023-02-28T06:02:42;6.90;;;5.53;;
13415;SDS011;6779;50.150;8.680;2023-02-28T06:05:10;7.53;;;5.97;;
13415;SDS011;6779;50.150;8.680;2023-02-28T06:07:39;9.40;;;5.77;;
13415;SDS011;6779;50.150;8.680;2023-02-28T06:10:04;7.93;;;5.57;;
13415;SDS011;6779;50.150;8.680;2023-02-28T06:12:30;6.77;;;5.40;;
13415;SDS011;6779;50.150;8.680;2023-02-28T06:14:55;6.50;;;5.43;;
13415;SDS011;6779;50.150;8.680;2023-02-28T06:17:20;5.93;;;5.13;;
13415;SDS011;6779;50.150;8.680;2023-02-28T06:19:46;7.10;;;5.70;;
13415;SDS011;6779;50.150;8.680;2023-02-28T06:22:12;7.47;;;5.27;;
13415;SDS011;6779;50.150;8.680;2023-02-28T06:24:38;7.00;;;5.43;;
13415;SDS011;6779;50.150;8.680;2023-02-28T06:27:03;5.93;;;5.33;;
13415;SDS011;6779;50.150;8.680;2023-02-28T06:29:30;5.30;;;4.80;;
13415;SDS011;6779;50.150;8.680;2023-02-28T06:31:56;6.97;;;5.87;;
13415;SDS011;6779;50.150;8.680;2023-02-28T06:34:21;8.97;;;5.43;;
13415;SDS011;6779;50.150;8.680;2023-02-28T06:36:48;9.97;;;5.70;;
13415;SDS011;6779;50.150;8.680;2023-02-28T06:39:15;6.87;;;5.27;;
13415;SDS011;6779;50.150;8.680;2023-02-28T06:41:41;9.53;;;4.97;;
13415;SDS011;6779;50.150;8.680;2023-02-28T06:44:13;7.33;;;5.50;;
13415;SDS011;6779;50.150;8.680;2023-02-28T06:46:42;7.60;;;5.27;;
13415;SDS011;6779;50.150;8.680;2023-02-28T06:49:09;6.83;;;5.40;;
13415;SDS011;6779;50.150;8.680;2023-02-28T06:51:35;7.50;;;5.87;;
13415;SDS011;6779;50.150;8.680;2023-02-28T06:54:04;7.50;;;5.93;;
13415;SDS011;6779;50.150;8.680;2023-02-28T06:56:30;6.57;;;5.83;;
13415;SDS011;6779;50.150;8.680;2023-02-28T06:58:56;8.17;;;5.90;;
13415;SDS011;6779;50.150;8.680;2023-02-28T07:01:21;6.27;;;5.23;;
13415;SDS011;6779;50.150;8.680;2023-02-28T07:03:48;5.57;;;4.70;;
13415;SDS011;6779;50.150;8.680;2023-02-28T07:06:17;6.27;;;5.40;;
13415;SDS011;6779;50.150;8.680;2023-02-28T07:08:43;7.53;;;5.23;;
13415;SDS011;6779;50.150;8.680;2023-02-28T07:11:08;7.63;;;5.83;;
13415;SDS011;6779;50.150;8.680;2023-02-28T07:13:33;6.73;;;5.43;;
13415;SDS011;6779;50.150;8.680;2023-02-28T07:16:00;6.80;;;5.10;;
13415;SDS011;6779;50.150;8.680;2023-02-28T07:18:29;9.83;;;5.67;;
13415;SDS011;6779;50.150;8.680;2023-02-28T07:20:54;6.70;;;5.33;;
13415;SDS011;6779;50.150;8.680;2023-02-28T07:23:20;7.03;;;5.80;;
13415;SDS011;6779;50.150;8.680;2023-02-28T07:25:45;9.57;;;5.50;;
13415;SDS011;6779;50.150;8.680;2023-02-28T07:28:11;7.67;;;5.17;;
13415;SDS011;6779;50.150;8.680;2023-02-28T07:30:37;6.40;;;5.40;;
13415;SDS011;6779;50.150;8.680;2023-02-28T07:33:02;7.13;;;5.63;;
13415;SDS011;6779;50.150;8.680;2023-02-28T07:35:28;7.87;;;5.63;;
13415;SDS011;6779;50.150;8.680;2023-02-28T07:37:54;9.60;;;5.80;;
13415;SDS011;6779;50.150;8.680;2023-02-28T07:40:19;9.67;;;6.40;;
13415;SDS011;6779;50.150;8.680;2023-02-28T07:42:44;6.87;;;5.87;;
13415;SDS011;6779;50.150;8.680;2023-02-28T07:45:10;8.20;;;6.17;;
13415;SDS011;6779;50.150;8.680;2023-02-28T07:47:37;6.83;;;5.83;;
13415;SDS011;6779;50.150;8.680;2023-02-28T07:50:06;9.27;;;6.73;;
13415;SDS011;6779;50.150;8.680;2023-02-28T07:52:33;8.93;;;6.13;;
13415;SDS011;6779;50.150;8.680;2023-02-28T07:54:58;7.93;;;5.67;;
13415;SDS011;6779;50.150;8.680;2023-02-28T07:57:23;8.70;;;6.37;;
13415;SDS011;6779;50.150;8.680;2023-02-28T07:59:48;7.37;;;6.13;;
13415;SDS011;6779;50.150;8.680;2023-02-28T08:02:14;8.73;;;6.10;;
13415;SDS011;6779;50.150;8.680;2023-02-28T08:04:40;7.43;;;6.10;;
13415;SDS011;6779;50.150;8.680;2023-02-28T08:07:06;8.77;;;6.80;;
13415;SDS011;6779;50.150;8.680;2023-02-28T08:09:31;7.27;;;5.40;;
13415;SDS011;6779;50.150;8.680;2023-02-28T08:11:56;7.03;;;6.10;;
13415;SDS011;6779;50.150;8.680;2023-02-28T08:14:22;7.83;;;5.47;;
13415;SDS011;6779;50.150;8.680;2023-02-28T08:16:47;8.20;;;5.17;;
13415;SDS011;6779;50.150;8.680;2023-02-28T08:19:12;6.53;;;5.83;;
13415;SDS011;6779;50.150;8.680;2023-02-28T08:21:38;6.90;;;5.23;;
13415;SDS011;6779;50.150;8.680;2023-02-28T08:24:03;9.27;;;5.07;;
13415;SDS011;6779;50.150;8.680;2023-02-28T08:26:29;5.27;;;4.77;;
13415;SDS011;6779;50.150;8.680;2023-02-28T08:28:54;5.60;;;4.90;;
13415;SDS011;6779;50.150;8.680;2023-02-28T08:31:19;6.00;;;4.63;;
13415;SDS011;6779;50.150;8.680;2023-02-28T08:33:45;7.00;;;5.13;;
13415;SDS011;6779;50.150;8.680;2023-02-28T08:36:12;6.17;;;4.80;;
13415;SDS011;6779;50.150;8.680;2023-02-28T08:38:37;5.00;;;4.50;;
13415;SDS011;6779;50.150;8.680;2023-02-28T08:41:04;6.10;;;4.67;;
13415;SDS011;6779;50.150;8.680;2023-02-28T08:43:32;7.90;;;5.17;;
13415;SDS011;6779;50.150;8.680;2023-02-28T08:45:58;4.67;;;4.17;;
13415;SDS011;6779;50.150;8.680;2023-02-28T08:48:24;6.33;;;4.23;;
13415;SDS011;6779;50.150;8.680;2023-02-28T08:50:56;5.93;;;4.57;;
13415;SDS011;6779;50.150;8.680;2023-02-28T08:53:22;6.57;;;4.57;;
13415;SDS011;6779;50.150;8.680;2023-02-28T08:55:55;5.27;;;4.63;;
13415;SDS011;6779;50.150;8.680;2023-02-28T08:58:23;6.50;;;4.47;;
13415;SDS011;6779;50.150;8.680;2023-02-28T09:00:49;6.03;;;4.60;;
13415;SDS011;6779;50.150;8.680;2023-02-28T09:03:15;5.93;;;4.40;;
13415;SDS011;6779;50.150;8.680;2023-02-28T09:05:40;5.07;;;4.53;;
13415;SDS011;6779;50.150;8.680;2023-02-28T09:08:06;6.77;;;3.97;;
13415;SDS011;6779;50.150;8.680;2023-02-28T09:10:31;5.10;;;4.23;;
13415;SDS011;6779;50.150;8.680;2023-02-28T09:12:56;4.70;;;4.30;;
13415;SDS011;6779;50.150;8.680;2023-02-28T09:15:21;5.50;;;4.73;;
13415;SDS011;6779;50.150;8.680;2023-02-28T09:17:47;6.57;;;4.50;;
13415;SDS011;6779;50.150;8.680;2023-02-28T09:20:12;7.30;;;4.90;;
13415;SDS011;6779;50.150;8.680;2023-02-28T09:22:38;4.77;;;4.37;;
13415;SDS011;6779;50.150;8.680;2023-02-28T09:25:03;4.37;;;3.97;;
13415;SDS011;6779;50.150;8.680;2023-02-28T09:27:29;4.30;;;3.90;;
13415;SDS011;6779;50.150;8.680;2023-02-28T09:29:54;4.83;;;4.27;;
13415;SDS011;6779;50.150;8.680;2023-02-28T09:32:19;5.77;;;4.23;;
13415;SDS011;6779;50.150;8.680;2023-02-28T09:34:45;4.57;;;4.13;;
13415;SDS011;6779;50.150;8.680;2023-02-28T09:37:10;5.00;;;4.30;;
13415;SDS011;6779;50.150;8.680;2023-02-28T09:39:35;4.93;;;4.17;;
13415;SDS011;6779;50.150;8.680;2023-02-28T09:42:01;5.63;;;4.40;;
13415;SDS011;6779;50.150;8.680;2023-02-28T09:44:37;5.20;;;4.00;;
13415;SDS011;6779;50.150;8.680;2023-02-28T09:47:18;4.53;;;4.03;;
13415;SDS011;6779;50.150;8.680;2023-02-28T09:49:55;5.27;;;4.43;;
13415;SDS011;6779;50.150;8.680;2023-02-28T09:52:30;5.57;;;4.13;;
13415;SDS011;6779;50.150;8.680;2023-02-28T09:54:59;5.80;;;5.20;;
13415;SDS011;6779;50.150;8.680;2023-02-28T09:57:34;5.20;;;4.50;;
13415;SDS011;6779;50.150;8.680;2023-02-28T10:00:13;5.13;;;4.27;;
13415;SDS011;6779;50.150;8.680;2023-02-28T10:06:35;6.53;;;5.13;;
13415;SDS011;6779;50.150;8.680;2023-02-28T10:08:52;5.73;;;4.60;;
13415;SDS011;6779;50.150;8.680;2023-02-28T10:11:25;5.00;;;4.37;;
13415;SDS011;6779;50.150;8.680;2023-02-28T10:14:01;5.30;;;4.80;;
13415;SDS011;6779;50.150;8.680;2023-02-28T10:16:43;5.87;;;5.27;;
13415;SDS011;6779;50.150;8.680;2023-02-28T10:19:17;6.57;;;5.03;;
13415;SDS011;6779;50.150;8.680;2023-02-28T10:24:43;4.90;;;4.47;;
13415;SDS011;6779;50.150;8.680;2023-02-28T10:27:23;5.23;;;4.73;;
13415;SDS011;6779;50.150;8.680;2023-02-28T10:29:50;5.67;;;5.17;;
13415;SDS011;6779;50.150;8.680;2023-02-28T10:32:19;6.20;;;5.60;;
13415;SDS011;6779;50.150;8.680;2023-02-28T10:34:50;8.40;;;5.30;;
13415;SDS011;6779;50.150;8.680;2023-02-28T10:37:17;4.93;;;4.53;;
13415;SDS011;6779;50.150;8.680;2023-02-28T10:39:45;5.03;;;4.63;;
13415;SDS011;6779;50.150;8.680;2023-02-28T10:42:24;4.73;;;4.33;;
13415;SDS011;6779;50.150;8.680;2023-02-28T10:55:58;4.90;;;4.37;;
13415;SDS011;6779;50.150;8.680;2023-02-28T10:58:46;4.70;;;4.30;;
13415;SDS011;6779;50.150;8.680;2023-02-28T11:01:45;5.00;;;4.50;;
13415;SDS011;6779;50.150;8.680;2023-02-28T11:07:01;6.53;;;5.33;;
13415;SDS011;6779;50.150;8.680;2023-02-28T11:09:29;5.23;;;4.73;;
13415;SDS011;6779;50.150;8.680;2023-02-28T11:11:57;5.17;;;3.87;;
13415;SDS011;6779;50.150;8.680;2023-02-28T11:14:26;5.37;;;4.27;;
13415;SDS011;6779;50.150;8.680;2023-02-28T11:16:53;5.27;;;4.50;;
13415;SDS011;6779;50.150;8.680;2023-02-28T11:19:28;5.97;;;5.37;;
13415;SDS011;6779;50.150;8.680;2023-02-28T11:22:00;5.30;;;4.80;;
13415;SDS011;6779;50.150;8.680;2023-02-28T11:24:30;5.53;;;4.30;;
13415;SDS011;6779;50.150;8.680;2023-02-28T11:26:59;4.73;;;4.23;;
13415;SDS011;6779;50.150;8.680;2023-02-28T11:29:25;4.70;;;4.23;;
13415;SDS011;6779;50.150;8.680;2023-02-28T11:34:33;4.83;;;4.43;;
13415;SDS011;6779;50.150;8.680;2023-02-28T11:37:00;5.50;;;5.00;;
13415;SDS011;6779;50.150;8.680;2023-02-28T11:39:29;5.40;;;4.90;;
13415;SDS011;6779;50.150;8.680;2023-02-28T11:42:00;5.53;;;5.00;;
13415;SDS011;6779;50.150;8.680;2023-02-28T11:47:38;7.67;;;6.97;;
13415;SDS011;6779;50.150;8.680;2023-02-28T11:50:33;5.97;;;5.37;;
13415;SDS011;6779;50.150;8.680;2023-02-28T11:53:11;6.83;;;5.67;;
13415;SDS011;6779;50.150;8.680;2023-02-28T11:55:44;5.63;;;5.13;;
13415;SDS011;6779;50.150;8.680;2023-02-28T12:01:09;5.93;;;5.43;;
13415;SDS011;6779;50.150;8.680;2023-02-28T12:06:36;7.20;;;6.50;;
13415;SDS011;6779;50.150;8.680;2023-02-28T12:20:29;7.27;;;6.13;;
13415;SDS011;6779;50.150;8.680;2023-02-28T12:28:28;8.53;;;7.07;;
13415;SDS011;6779;50.150;8.680;2023-02-28T12:30:58;8.60;;;6.57;;
13415;SDS011;6779;50.150;8.680;2023-02-28T12:33:28;8.33;;;6.57;;
13415;SDS011;6779;50.150;8.680;2023-02-28T12:35:59;9.47;;;7.23;;
13415;SDS011;6779;50.150;8.680;2023-02-28T12:41:03;7.03;;;6.33;;
13415;SDS011;6779;50.150;8.680;2023-02-28T12:43:33;7.37;;;6.10;;
13415;SDS011;6779;50.150;8.680;2023-02-28T12:46:04;6.53;;;5.90;;
13415;SDS011;6779;50.150;8.680;2023-02-28T12:48:48;6.70;;;5.47;;
13415;SDS011;6779;50.150;8.680;2023-02-28T12:51:20;6.93;;;5.63;;
13415;SDS011;6779;50.150;8.680;2023-02-28T12:53:52;6.87;;;5.80;;
13415;SDS011;6779;50.150;8.680;2023-02-28T12:56:22;8.43;;;6.83;;
13415;SDS011;6779;50.150;8.680;2023-02-28T12:59:21;6.30;;;5.70;;
13415;SDS011;6779;50.150;8.680;2023-02-28T13:04:40;6.60;;;5.90;;
13415;SDS011;6779;50.150;8.680;2023-02-28T13:09:56;8.03;;;6.10;;
13415;SDS011;6779;50.150;8.680;2023-02-28T13:12:23;7.07;;;5.80;;
13415;SDS011;6779;50.150;8.680;2023-02-28T13:14:48;8.63;;;6.57;;
13415;SDS011;6779;50.150;8.680;2023-02-28T13:17:20;7.13;;;5.50;;
13415;SDS011;6779;50.150;8.680;2023-02-28T13:22:35;7.07;;;6.37;;
13415;SDS011;6779;50.150;8.680;2023-02-28T13:27:47;5.87;;;5.27;;
13415;SDS011;6779;50.150;8.680;2023-02-28T13:33:36;6.53;;;5.83;;
13415;SDS011;6779;50.150;8.680;2023-02-28T13:38:36;6.37;;;5.77;;
13415;SDS011;6779;50.150;8.680;2023-02-28T13:44:04;6.40;;;5.73;;
13415;SDS011;6779;50.150;8.680;2023-02-28T13:46:33;8.77;;;5.90;;
13415;SDS011;6779;50.150;8.680;2023-02-28T13:51:48;6.87;;;5.50;;
13415;SDS011;6779;50.150;8.680;2023-02-28T14:05:21;7.87;;;5.83;;
13415;SDS011;6779;50.150;8.680;2023-02-28T14:07:51;6.50;;;5.87;;
13415;SDS011;6779;50.150;8.680;2023-02-28T14:10:23;6.80;;;6.20;;
13415;SDS011;6779;50.150;8.680;2023-02-28T14:16:09;8.33;;;6.70;;
13415;SDS011;6779;50.150;8.680;2023-02-28T14:18:37;8.17;;;6.00;;
13415;SDS011;6779;50.150;8.680;2023-02-28T14:24:02;8.23;;;7.37;;
13415;SDS011;6779;50.150;8.680;2023-02-28T14:26:51;8.50;;;7.60;;
13415;SDS011;6779;50.150;8.680;2023-02-28T14:38:16;7.03;;;6.27;;
13415;SDS011;6779;50.150;8.680;2023-02-28T14:40:51;8.53;;;6.60;;
13415;SDS011;6779;50.150;8.680;2023-02-28T14:43:19;7.30;;;6.57;;
13415;SDS011;6779;50.150;8.680;2023-02-28T14:45:49;8.30;;;6.33;;
13415;SDS011;6779;50.150;8.680;2023-02-28T14:48:16;7.63;;;6.70;;
13415;SDS011;6779;50.150;8.680;2023-02-28T14:50:42;8.97;;;6.80;;
13415;SDS011;6779;50.150;8.680;2023-02-28T14:53:15;7.43;;;6.27;;
13415;SDS011;6779;50.150;8.680;2023-02-28T14:55:44;7.77;;;6.73;;
13415;SDS011;6779;50.150;8.680;2023-02-28T14:58:30;8.80;;;6.90;;
13415;SDS011;6779;50.150;8.680;2023-02-28T15:00:58;7.90;;;6.30;;
13415;SDS011;6779;50.150;8.680;2023-02-28T15:03:32;8.73;;;6.27;;
13415;SDS011;6779;50.150;8.680;2023-02-28T15:06:02;8.40;;;6.63;;
13415;SDS011;6779;50.150;8.680;2023-02-28T15:08:29;10.27;;;6.50;;
13415;SDS011;6779;50.150;8.680;2023-02-28T15:11:01;8.37;;;6.17;;
13415;SDS011;6779;50.150;8.680;2023-02-28T15:16:18;7.27;;;6.17;;
13415;SDS011;6779;50.150;8.680;2023-02-28T15:18:49;7.10;;;6.27;;
13415;SDS011;6779;50.150;8.680;2023-02-28T15:21:20;8.00;;;6.50;;
13415;SDS011;6779;50.150;8.680;2023-02-28T15:23:51;7.13;;;6.30;;
13415;SDS011;6779;50.150;8.680;2023-02-28T15:26:21;7.67;;;6.83;;
13415;SDS011;6779;50.150;8.680;2023-02-28T15:28:50;7.77;;;6.90;;
13415;SDS011;6779;50.150;8.680;2023-02-28T15:31:21;8.50;;;6.03;;
13415;SDS011;6779;50.150;8.680;2023-02-28T15:33:58;7.40;;;6.60;;
13415;SDS011;6779;50.150;8.680;2023-02-28T15:36:30;7.70;;;6.47;;
13415;SDS011;6779;50.150;8.680;2023-02-28T15:38:58;7.57;;;6.67;;
13415;SDS011;6779;50.150;8.680;2023-02-28T15:43:57;8.63;;;6.43;;
13415;SDS011;6779;50.150;8.680;2023-02-28T15:46:43;8.17;;;6.70;;
13415;SDS011;6779;50.150;8.680;2023-02-28T15:49:19;9.20;;;6.43;;
13415;SDS011;6779;50.150;8.680;2023-02-28T15:51:45;8.93;;;7.43;;
13415;SDS011;6779;50.150;8.680;2023-02-28T15:54:15;6.87;;;5.90;;
13415;SDS011;6779;50.150;8.680;2023-02-28T15:56:45;9.80;;;6.43;;
13415;SDS011;6779;50.150;8.680;2023-02-28T15:59:16;7.57;;;6.87;;
13415;SDS011;6779;50.150;8.680;2023-02-28T16:01:43;10.67;;;7.23;;
13415;SDS011;6779;50.150;8.680;2023-02-28T16:04:14;7.67;;;6.90;;
13415;SDS011;6779;50.150;8.680;2023-02-28T16:06:41;8.77;;;7.40;;
13415;SDS011;6779;50.150;8.680;2023-02-28T16:09:11;7.70;;;6.90;;
13415;SDS011;6779;50.150;8.680;2023-02-28T16:11:39;10.97;;;7.43;;
13415;SDS011;6779;50.150;8.680;2023-02-28T16:14:08;9.27;;;7.17;;
13415;SDS011;6779;50.150;8.680;2023-02-28T16:16:41;8.00;;;6.60;;
13415;SDS011;6779;50.150;8.680;2023-02-28T16:19:08;8.07;;;7.27;;
13415;SDS011;6779;50.150;8.680;2023-02-28T16:21:34;7.17;;;6.43;;
13415;SDS011;6779;50.150;8.680;2023-02-28T16:23:59;10.67;;;7.63;;
13415;SDS011;6779;50.150;8.680;2023-02-28T16:26:24;9.37;;;7.70;;
13415;SDS011;6779;50.150;8.680;2023-02-28T16:28:52;10.97;;;7.97;;
13415;SDS011;6779;50.150;8.680;2023-02-28T16:31:17;9.07;;;7.23;;
13415;SDS011;6779;50.150;8.680;2023-02-28T16:33:43;7.67;;;6.37;;
13415;SDS011;6779;50.150;8.680;2023-02-28T16:36:13;7.93;;;6.80;;
13415;SDS011;6779;50.150;8.680;2023-02-28T16:38:40;9.83;;;7.77;;
13415;SDS011;6779;50.150;8.680;2023-02-28T16:41:05;8.23;;;6.97;;
13415;SDS011;6779;50.150;8.680;2023-02-28T16:43:31;8.57;;;7.13;;
13415;SDS011;6779;50.150;8.680;2023-02-28T16:45:57;9.40;;;6.97;;
13415;SDS011;6779;50.150;8.680;2023-02-28T16:48:26;8.37;;;6.70;;
13415;SDS011;6779;50.150;8.680;2023-02-28T16:50:51;10.70;;;7.37;;
13415;SDS011;6779;50.150;8.680;2023-02-28T16:53:16;7.93;;;7.03;;
13415;SDS011;6779;50.150;8.680;2023-02-28T16:55:42;8.03;;;6.83;;
13415;SDS011;6779;50.150;8.680;2023-02-28T16:58:11;8.13;;;6.47;;
13415;SDS011;6779;50.150;8.680;2023-02-28T17:00:38;8.80;;;7.27;;
13415;SDS011;6779;50.150;8.680;2023-02-28T17:03:04;9.63;;;7.07;;
13415;SDS011;6779;50.150;8.680;2023-02-28T17:05:33;8.23;;;7.30;;
13415;SDS011;6779;50.150;8.680;2023-02-28T17:08:02;10.33;;;7.70;;
13415;SDS011;6779;50.150;8.680;2023-02-28T17:10:28;9.83;;;7.33;;
13415;SDS011;6779;50.150;8.680;2023-02-28T17:12:53;8.43;;;6.93;;
13415;SDS011;6779;50.150;8.680;2023-02-28T17:15:19;12.53;;;8.20;;
13415;SDS011;6779;50.150;8.680;2023-02-28T17:17:45;8.83;;;7.50;;
13415;SDS011;6779;50.150;8.680;2023-02-28T17:20:15;11.50;;;7.20;;
13415;SDS011;6779;50.150;8.680;2023-02-28T17:22:42;9.67;;;7.30;;
13415;SDS011;6779;50.150;8.680;2023-02-28T17:25:08;9.70;;;6.83;;
13415;SDS011;6779;50.150;8.680;2023-02-28T17:27:34;10.73;;;7.57;;